Time;durP1;ratioP1;P1;durP2;ratioP2;P2;SDS_P1;SDS_P2;PMS_P1;PMS_P2;Temp;Humidity;BMP_temperature;BMP_pressure;BME280_temperature;BME280_humidity;BME280_pressure;Samples;Min_cycle;Max_cycle;Signal;HPM_P1;HPM_P2
2022/06/07 00:02:28;;;;;;;2.95;2.75;;;15.90;99.50;;;;;;610075;231;26655;-64
2022/06/07 00:04:53;;;;;;;2.90;2.70;;;15.80;99.90;;;;;;609844;235;26622;-64
2022/06/07 00:07:21;;;;;;;3.55;3.25;;;15.80;99.90;;;;;;609871;235;26589;-64
2022/06/07 00:09:49;;;;;;;3.53;3.28;;;15.80;99.90;;;;;;609908;235;26670;-64
2022/06/07 00:12:17;;;;;;;3.12;2.92;;;15.80;99.90;;;;;;609806;235;26586;-64
2022/06/07 00:14:45;;;;;;;3.65;3.35;;;15.80;99.90;;;;;;609853;236;26641;-64
2022/06/07 00:17:12;;;;;;;3.03;2.83;;;15.80;99.90;;;;;;605622;235;27289;-64
2022/06/07 00:19:39;;;;;;;3.55;3.10;;;15.80;99.90;;;;;;605287;235;26633;-64
2022/06/07 00:22:06;;;;;;;5.03;3.12;;;15.80;99.90;;;;;;604884;236;26846;-65
2022/06/07 00:24:34;;;;;;;8.57;3.10;;;15.80;99.90;;;;;;604640;237;26602;-64
2022/06/07 00:27:01;;;;;;;7.53;3.55;;;15.70;99.90;;;;;;604606;237;26846;-65
2022/06/07 00:29:28;;;;;;;5.87;3.28;;;15.70;99.90;;;;;;608157;236;26964;-65
2022/06/07 00:31:55;;;;;;;3.20;2.90;;;15.70;99.90;;;;;;609895;235;26572;-65
2022/06/07 00:34:23;;;;;;;3.25;2.95;;;15.60;99.90;;;;;;609880;235;27470;-64
2022/06/07 00:36:51;;;;;;;3.72;3.20;;;15.60;99.90;;;;;;609824;236;26576;-64
2022/06/07 00:39:18;;;;;;;3.55;2.97;;;15.70;99.90;;;;;;610730;233;26592;-64
2022/06/07 00:41:45;;;;;;;4.30;2.67;;;15.70;99.90;;;;;;611126;234;26837;-64
2022/06/07 00:44:35;;;;;;;2.95;2.72;;;15.70;99.90;;;;;;610825;235;26655;-64
2022/06/07 00:47:08;;;;;;;4.12;2.97;;;15.70;99.90;;;;;;610651;235;26582;-64
2022/06/07 00:49:34;;;;;;;3.30;3.00;;;15.70;99.90;;;;;;610206;235;26592;-64
2022/06/07 00:52:01;;;;;;;3.28;2.75;;;15.70;99.90;;;;;;610244;236;26845;-64
2022/06/07 00:54:29;;;;;;;3.40;2.80;;;15.60;99.90;;;;;;610343;235;26597;-64
2022/06/07 00:56:57;;;;;;;3.00;2.80;;;15.50;99.90;;;;;;610281;236;26567;-64
2022/06/07 00:59:25;;;;;;;3.00;2.80;;;15.50;99.90;;;;;;610170;236;26643;-64
2022/06/07 01:01:53;;;;;;;2.92;2.72;;;15.50;99.90;;;;;;609982;230;26627;-64
2022/06/07 01:04:23;;;;;;;3.00;2.80;;;15.50;99.90;;;;;;610165;235;26639;-64
2022/06/07 01:11:54;;;;;;;3.40;2.75;;;15.60;99.90;;;;;;610101;236;26637;-64
2022/06/07 01:14:21;;;;;;;4.35;3.10;;;15.60;99.90;;;;;;610149;234;26657;-64
2022/06/07 01:16:48;;;;;;;3.08;2.70;;;15.60;99.90;;;;;;609879;235;26870;-65
2022/06/07 01:19:15;;;;;;;2.95;2.75;;;15.60;99.90;;;;;;609858;235;26572;-64
2022/06/07 01:21:45;;;;;;;2.97;2.78;;;15.60;99.90;;;;;;609804;236;26865;-64
2022/06/07 01:24:10;;;;;;;2.80;2.60;;;15.60;99.90;;;;;;609749;236;26589;-63
2022/06/07 01:26:37;;;;;;;3.65;3.35;;;15.50;99.90;;;;;;609868;236;26847;-64
2022/06/07 01:29:04;;;;;;;3.00;2.80;;;15.40;99.90;;;;;;609869;235;26576;-64
2022/06/07 01:31:31;;;;;;;3.12;2.87;;;15.40;99.90;;;;;;609781;232;26831;-64
2022/06/07 01:33:59;;;;;;;2.97;2.33;;;15.30;99.90;;;;;;609880;236;26590;-64
2022/06/07 01:36:26;;;;;;;3.08;2.60;;;15.30;99.90;;;;;;609893;235;26831;-64
2022/06/07 01:41:59;;;;;;;3.10;2.90;;;15.20;99.90;;;;;;609858;236;26593;-64
2022/06/07 01:44:10;;;;;;;3.37;2.50;;;15.30;99.90;;;;;;608562;235;26597;-64
2022/06/07 01:46:37;;;;;;;3.00;2.80;;;15.20;99.90;;;;;;609834;236;26551;-64
2022/06/07 01:49:05;;;;;;;3.30;2.50;;;15.30;99.90;;;;;;609871;236;26585;-64
2022/06/07 01:51:33;;;;;;;2.75;2.55;;;15.30;99.90;;;;;;611140;233;26643;-64
2022/06/07 01:54:01;;;;;;;2.87;2.67;;;15.30;99.90;;;;;;611124;235;26552;-64
2022/06/07 01:56:29;;;;;;;2.47;2.37;;;15.20;99.90;;;;;;610780;235;26555;-64
2022/06/07 01:58:57;;;;;;;2.72;2.53;;;15.20;99.90;;;;;;610707;235;26601;-64
2022/06/07 02:01:23;;;;;;;3.17;2.65;;;15.20;99.90;;;;;;610326;236;26585;-65
2022/06/07 02:03:51;;;;;;;2.62;2.47;;;15.30;99.90;;;;;;610450;235;26819;-65
2022/06/07 02:06:18;;;;;;;3.72;2.60;;;15.30;99.90;;;;;;610423;235;26572;-64
2022/06/07 02:08:45;;;;;;;2.60;2.40;;;15.40;99.90;;;;;;610380;236;26852;-64
2022/06/07 02:11:13;;;;;;;2.80;2.60;;;15.40;99.90;;;;;;610136;235;26640;-64
2022/06/07 02:13:41;;;;;;;2.62;2.42;;;15.40;99.90;;;;;;610037;236;26597;-64
2022/06/07 02:16:08;;;;;;;2.83;2.62;;;15.40;99.90;;;;;;610040;236;26633;-64
2022/06/07 02:18:36;;;;;;;2.80;2.60;;;15.40;99.90;;;;;;610129;235;27305;-64
2022/06/07 02:21:04;;;;;;;3.00;2.72;;;15.30;99.90;;;;;;610180;236;26652;-64
2022/06/07 02:23:32;;;;;;;2.80;2.60;;;15.30;99.90;;;;;;610096;236;26609;-64
2022/06/07 02:25:59;;;;;;;3.08;2.78;;;15.30;99.90;;;;;;610207;235;26636;-64
2022/06/07 02:28:27;;;;;;;2.47;2.35;;;15.20;99.90;;;;;;609690;236;26810;-64
2022/06/07 02:30:54;;;;;;;2.67;2.47;;;15.20;99.90;;;;;;609606;236;26588;-64
2022/06/07 02:33:22;;;;;;;2.67;2.47;;;15.10;99.90;;;;;;609675;236;26833;-64
2022/06/07 02:35:49;;;;;;;2.95;2.75;;;15.10;99.90;;;;;;609846;235;26900;-65
2022/06/07 02:38:16;;;;;;;2.47;2.30;;;15.00;99.90;;;;;;609755;235;26624;-64
2022/06/07 02:40:44;;;;;;;2.65;2.45;;;15.00;99.90;;;;;;609860;235;26648;-64
2022/06/07 02:43:11;;;;;;;3.10;2.72;;;15.00;99.90;;;;;;609711;236;26833;-64
2022/06/07 02:45:38;;;;;;;2.33;2.22;;;15.00;99.90;;;;;;609850;235;26592;-64
2022/06/07 02:48:07;;;;;;;2.80;2.60;;;15.00;99.90;;;;;;609845;236;26823;-64
2022/06/07 02:50:33;;;;;;;2.10;2.00;;;15.00;99.90;;;;;;609801;236;26588;-64
2022/06/07 02:53:00;;;;;;;2.60;2.40;;;15.00;99.90;;;;;;609849;235;26969;-64
2022/06/07 02:55:27;;;;;;;2.40;2.28;;;15.10;99.90;;;;;;609853;236;26631;-64
2022/06/07 02:57:55;;;;;;;2.78;2.58;;;15.10;99.90;;;;;;609861;236;26825;-65
2022/06/07 03:00:22;;;;;;;2.42;2.30;;;15.10;99.90;;;;;;609894;235;26583;-65
2022/06/07 03:02:50;;;;;;;2.55;2.35;;;15.10;99.90;;;;;;610897;234;26622;-65
2022/06/07 03:05:17;;;;;;;2.62;2.42;;;15.10;99.90;;;;;;611136;235;26882;-64
2022/06/07 03:07:44;;;;;;;2.87;2.67;;;15.10;99.90;;;;;;610789;235;26567;-64
2022/06/07 03:10:12;;;;;;;3.28;2.62;;;15.10;99.90;;;;;;610743;235;26588;-65
2022/06/07 03:12:40;;;;;;;2.40;2.25;;;15.10;99.90;;;;;;610420;235;26589;-65
2022/06/07 03:15:08;;;;;;;2.50;2.30;;;15.10;99.90;;;;;;610411;236;26620;-64
2022/06/07 03:17:35;;;;;;;2.83;2.62;;;15.10;99.90;;;;;;610450;236;26822;-64
2022/06/07 03:20:04;;;;;;;2.47;2.30;;;15.20;99.90;;;;;;610301;235;26576;-64
2022/06/07 03:22:32;;;;;;;2.40;2.30;;;15.20;99.90;;;;;;610456;235;26628;-64
2022/06/07 03:25:01;;;;;;;2.78;2.58;;;15.20;99.90;;;;;;610123;230;26898;-64
2022/06/07 03:27:26;;;;;;;2.45;2.25;;;15.30;99.90;;;;;;609815;236;26638;-64
2022/06/07 03:29:53;;;;;;;2.40;2.20;;;15.30;99.90;;;;;;610065;235;26886;-65
2022/06/07 03:32:20;;;;;;;3.60;2.40;;;15.30;99.90;;;;;;610167;230;26652;-64
2022/06/07 03:34:47;;;;;;;2.25;2.15;;;15.30;99.90;;;;;;610169;235;27390;-64
2022/06/07 03:37:14;;;;;;;2.75;2.50;;;15.30;99.90;;;;;;610152;235;26634;-65
2022/06/07 03:39:41;;;;;;;2.60;2.40;;;15.50;99.50;;;;;;609863;235;26593;-64
2022/06/07 03:42:09;;;;;;;2.30;2.20;;;15.60;98.50;;;;;;609858;236;26553;-64
2022/06/07 03:44:37;;;;;;;2.70;2.50;;;15.60;98.10;;;;;;609919;235;26659;-64
2022/06/07 03:47:05;;;;;;;2.35;2.25;;;15.70;97.50;;;;;;609863;235;26578;-64
2022/06/07 03:49:33;;;;;;;2.67;2.47;;;15.70;97.30;;;;;;609876;235;26581;-64
2022/06/07 03:52:01;;;;;;;2.90;2.50;;;15.70;97.30;;;;;;609879;230;26612;-64
2022/06/07 03:54:28;;;;;;;2.37;2.17;;;15.80;96.70;;;;;;609894;236;26605;-64
2022/06/07 03:56:55;;;;;;;2.53;2.28;;;15.80;96.40;;;;;;609903;235;26581;-64
2022/06/07 03:59:22;;;;;;;2.20;2.10;;;15.80;96.20;;;;;;609903;235;26733;-64
2022/06/07 04:01:50;;;;;;;2.35;2.20;;;15.70;95.60;;;;;;609821;235;26560;-64
2022/06/07 04:04:18;;;;;;;2.60;2.40;;;15.70;95.30;;;;;;609872;235;26613;-64
2022/06/07 04:08:10;;;;;;;2.95;2.45;;;15.70;95.10;;;;;;609887;235;26587;-64
2022/06/07 04:09:14;;;;;;;2.30;2.10;;;15.70;95.00;;;;;;609648;236;26610;-64
2022/06/07 04:11:41;;;;;;;3.50;2.00;;;15.60;95.00;;;;;;609852;236;26850;-64
2022/06/07 04:14:08;;;;;;;2.30;2.10;;;15.60;95.20;;;;;;610781;233;26598;-64
2022/06/07 04:16:36;;;;;;;2.30;2.20;;;15.60;94.90;;;;;;611188;234;26808;-64
2022/06/07 04:19:03;;;;;;;2.30;2.10;;;15.60;94.90;;;;;;611140;235;26645;-64
2022/06/07 04:21:30;;;;;;;2.47;2.28;;;15.50;94.60;;;;;;611019;235;26813;-64
2022/06/07 04:23:57;;;;;;;2.47;2.20;;;15.50;94.60;;;;;;610522;235;26573;-64
2022/06/07 04:26:24;;;;;;;2.10;2.00;;;15.50;94.40;;;;;;610418;235;27262;-65
2022/06/07 04:28:52;;;;;;;3.08;1.98;;;15.60;94.40;;;;;;610420;235;26601;-64
2022/06/07 04:31:20;;;;;;;4.50;2.00;;;15.70;94.10;;;;;;610393;236;26817;-64
2022/06/07 04:33:47;;;;;;;2.12;1.92;;;15.60;94.00;;;;;;610096;236;26871;-65
2022/06/07 04:36:14;;;;;;;1.90;1.80;;;15.60;93.70;;;;;;610068;236;26655;-64
2022/06/07 04:38:41;;;;;;;1.90;1.80;;;15.70;93.60;;;;;;610085;236;27267;-64
2022/06/07 04:41:09;;;;;;;2.58;1.95;;;15.60;93.60;;;;;;610172;235;26613;-64
2022/06/07 04:43:37;;;;;;;2.12;1.92;;;15.60;93.40;;;;;;610082;236;26818;-64
2022/06/07 04:46:06;;;;;;;2.25;1.80;;;15.70;93.30;;;;;;610082;235;26643;-64
2022/06/07 04:48:34;;;;;;;2.12;2.00;;;15.70;93.20;;;;;;609980;236;26631;-64
2022/06/07 04:51:02;;;;;;;1.70;1.60;;;15.90;92.80;;;;;;609895;235;26600;-64
2022/06/07 04:53:31;;;;;;;2.20;1.73;;;16.00;93.00;;;;;;609770;236;26628;-64
2022/06/07 04:55:57;;;;;;;2.40;1.70;;;15.90;92.70;;;;;;609805;236;26865;-64
2022/06/07 04:58:24;;;;;;;1.90;1.80;;;15.90;92.60;;;;;;609899;236;26585;-65
2022/06/07 05:00:52;;;;;;;1.80;1.70;;;16.10;92.30;;;;;;609876;235;26856;-65
2022/06/07 05:03:21;;;;;;;2.12;2.03;;;16.10;92.30;;;;;;609882;236;26779;-65
2022/06/07 05:05:47;;;;;;;2.12;2.03;;;16.10;92.20;;;;;;609835;236;26615;-65
2022/06/07 05:08:14;;;;;;;1.87;1.77;;;16.10;92.00;;;;;;609955;236;26618;-64
2022/06/07 05:10:42;;;;;;;1.83;1.65;;;16.20;91.40;;;;;;609820;235;26593;-65
2022/06/07 05:13:09;;;;;;;2.03;1.83;;;16.20;91.40;;;;;;609834;235;26577;-65
2022/06/07 05:15:36;;;;;;;1.80;1.70;;;16.20;91.30;;;;;;609866;235;26603;-65
2022/06/07 05:18:04;;;;;;;1.80;1.70;;;16.10;91.00;;;;;;609843;236;26852;-65
2022/06/07 05:20:31;;;;;;;1.77;1.60;;;16.10;91.00;;;;;;609877;236;26597;-65
2022/06/07 05:22:58;;;;;;;1.83;1.70;;;16.10;91.20;;;;;;609832;235;26848;-65
2022/06/07 05:25:25;;;;;;;1.85;1.75;;;16.20;91.00;;;;;;610588;233;26639;-65
2022/06/07 05:27:52;;;;;;;2.00;1.90;;;16.40;90.50;;;;;;611189;235;27434;-65
2022/06/07 05:30:20;;;;;;;1.80;1.70;;;16.60;90.30;;;;;;610916;235;26636;-65
2022/06/07 05:32:47;;;;;;;1.83;1.73;;;16.80;89.30;;;;;;610746;235;26576;-65
2022/06/07 05:35:14;;;;;;;1.75;1.65;;;17.00;88.30;;;;;;610600;235;26600;-63
2022/06/07 05:37:43;;;;;;;1.80;1.70;;;17.20;86.80;;;;;;610510;235;26589;-65
2022/06/07 05:40:12;;;;;;;1.90;1.80;;;17.30;86.70;;;;;;610428;236;26609;-65
2022/06/07 05:42:39;;;;;;;1.73;1.62;;;17.20;86.50;;;;;;610415;236;26811;-65
2022/06/07 05:45:07;;;;;;;2.33;2.08;;;17.40;85.60;;;;;;610049;235;26669;-65
2022/06/07 05:47:34;;;;;;;1.73;1.60;;;17.50;85.30;;;;;;610179;236;26641;-64
2022/06/07 05:50:04;;;;;;;1.70;1.60;;;17.70;84.60;;;;;;610112;235;26976;-64
2022/06/07 05:52:28;;;;;;;1.77;1.67;;;17.90;84.20;;;;;;609987;236;26631;-64
2022/06/07 05:54:57;;;;;;;1.55;1.50;;;17.90;81.70;;;;;;610091;235;26904;-64
2022/06/07 05:57:23;;;;;;;1.55;1.45;;;17.90;80.10;;;;;;610162;236;26657;-64
2022/06/07 05:59:50;;;;;;;1.70;1.67;;;18.10;78.80;;;;;;610188;235;27005;-65
2022/06/07 06:02:17;;;;;;;1.58;1.48;;;18.10;77.60;;;;;;609920;236;26636;-64
2022/06/07 06:04:44;;;;;;;1.30;1.20;;;18.20;75.80;;;;;;609865;235;26839;-64
2022/06/07 06:07:12;;;;;;;1.52;1.50;;;18.10;76.10;;;;;;609848;235;26596;-64
2022/06/07 06:12:12;;;;;;;1.30;1.27;;;17.90;73.70;;;;;;609811;235;26585;-64
2022/06/07 06:14:40;;;;;;;1.35;1.25;;;18.00;72.00;;;;;;609811;236;26616;-64
2022/06/07 06:17:07;;;;;;;1.60;1.25;;;17.90;71.90;;;;;;609778;236;26588;-64
2022/06/07 06:19:34;;;;;;;1.52;1.30;;;18.00;69.80;;;;;;609856;236;26847;-64
2022/06/07 06:22:01;;;;;;;1.65;1.55;;;18.00;68.90;;;;;;609806;236;26590;-64
2022/06/07 06:24:28;;;;;;;1.25;1.25;;;18.10;68.40;;;;;;609856;235;26839;-64
2022/06/07 06:26:56;;;;;;;1.45;1.20;;;18.40;67.50;;;;;;609845;235;26585;-63
2022/06/07 06:29:23;;;;;;;1.23;1.15;;;18.70;67.10;;;;;;609819;235;27540;-64
2022/06/07 06:31:51;;;;;;;1.37;1.33;;;19.00;65.90;;;;;;609646;235;26581;-64
2022/06/07 06:34:17;;;;;;;1.52;1.50;;;19.40;64.70;;;;;;609763;235;26608;-64
2022/06/07 06:36:47;;;;;;;1.45;1.35;;;19.40;63.20;;;;;;610316;233;26585;-64
2022/06/07 06:39:13;;;;;;;1.48;1.40;;;19.50;62.40;;;;;;611160;235;26629;-64
2022/06/07 06:41:43;;;;;;;1.75;1.20;;;19.60;61.10;;;;;;610872;235;26644;-64
2022/06/07 06:44:08;;;;;;;2.22;1.58;;;19.50;60.90;;;;;;610532;234;26591;-64
2022/06/07 06:46:35;;;;;;;1.23;1.17;;;19.50;61.10;;;;;;610524;235;26552;-64
2022/06/07 06:49:03;;;;;;;1.20;1.20;;;19.70;61.40;;;;;;610393;236;26833;-64
2022/06/07 06:51:30;;;;;;;1.42;1.23;;;19.70;60.80;;;;;;610463;235;26600;-64
2022/06/07 06:53:57;;;;;;;1.15;0.98;;;19.90;59.30;;;;;;610412;235;26810;-64
2022/06/07 06:56:24;;;;;;;1.00;1.00;;;19.90;59.20;;;;;;610185;235;26632;-64
2022/06/07 06:58:52;;;;;;;1.35;1.27;;;19.90;59.00;;;;;;610118;235;26628;-64
2022/06/07 07:01:19;;;;;;;1.20;1.10;;;20.10;58.90;;;;;;610113;235;26664;-64
2022/06/07 07:03:46;;;;;;;1.45;1.35;;;20.50;58.80;;;;;;610015;236;26636;-64
2022/06/07 07:06:13;;;;;;;1.20;1.20;;;20.90;57.70;;;;;;610110;235;26870;-64
2022/06/07 07:08:41;;;;;;;1.60;1.50;;;21.10;56.90;;;;;;610128;235;26691;-64
2022/06/07 07:11:24;;;;;;;1.65;1.30;;;20.90;56.30;;;;;;610042;236;27485;-63
2022/06/07 07:13:52;;;;;;;1.33;1.23;;;21.30;56.10;;;;;;609938;236;26589;-63
2022/06/07 07:16:19;;;;;;;1.37;1.27;;;21.40;55.90;;;;;;609860;236;26905;-64
2022/06/07 07:18:46;;;;;;;1.87;1.42;;;21.20;55.60;;;;;;609848;232;26584;-64
2022/06/07 07:21:13;;;;;;;1.02;1.02;;;21.10;56.20;;;;;;609900;235;27272;-63
2022/06/07 07:23:40;;;;;;;2.70;1.33;;;20.90;56.30;;;;;;609686;236;26624;-64
2022/06/07 07:26:08;;;;;;;1.00;1.00;;;20.60;56.30;;;;;;609860;236;26852;-64
2022/06/07 07:28:35;;;;;;;1.00;1.00;;;20.60;56.10;;;;;;610017;236;26561;-64
2022/06/07 07:31:02;;;;;;;1.08;1.08;;;21.00;55.50;;;;;;610235;235;26582;-64
2022/06/07 07:33:31;;;;;;;1.17;1.08;;;21.30;53.80;;;;;;610191;236;26561;-64
2022/06/07 07:35:57;;;;;;;1.02;1.00;;;21.30;53.80;;;;;;610209;236;26593;-64
2022/06/07 07:38:24;;;;;;;1.42;1.30;;;21.10;53.50;;;;;;610105;236;26560;-64
2022/06/07 07:40:52;;;;;;;1.10;1.10;;;20.90;53.40;;;;;;610242;236;26561;-64
2022/06/07 07:43:20;;;;;;;1.10;1.10;;;20.90;53.40;;;;;;610253;235;26553;-64
2022/06/07 07:45:47;;;;;;;1.35;1.12;;;20.90;53.30;;;;;;610207;235;26580;-64
2022/06/07 07:48:14;;;;;;;1.40;1.30;;;20.90;53.50;;;;;;610179;233;26794;-65
2022/06/07 07:50:41;;;;;;;1.48;1.33;;;20.70;53.50;;;;;;611696;231;26558;-65
2022/06/07 07:53:08;;;;;;;1.17;1.17;;;20.40;53.80;;;;;;611270;235;26604;-65
2022/06/07 07:55:36;;;;;;;2.10;1.25;;;20.40;54.00;;;;;;610441;234;26664;-64
2022/06/07 07:58:03;;;;;;;1.10;1.10;;;21.10;54.00;;;;;;610934;234;26801;-64
2022/06/07 08:00:31;;;;;;;1.33;1.23;;;21.10;53.60;;;;;;603514;235;26580;-64
2022/06/07 08:02:59;;;;;;;1.45;1.35;;;21.40;52.50;;;;;;607273;236;26601;-63
2022/06/07 08:05:26;;;;;;;1.20;1.10;;;21.50;52.70;;;;;;606230;235;26873;-64
2022/06/07 08:07:55;;;;;;;1.67;1.35;;;21.50;52.70;;;;;;603547;235;26629;-63
2022/06/07 08:10:22;;;;;;;1.58;0.98;;;21.60;51.80;;;;;;602270;235;26613;-73
2022/06/07 08:12:50;;;;;;;1.30;1.25;;;21.80;52.00;;;;;;603816;237;26598;-65
2022/06/07 08:15:21;;;;;;;1.42;1.33;;;21.90;53.00;;;;;;606782;233;26615;-66
2022/06/07 08:17:45;;;;;;;1.12;1.12;;;21.90;52.70;;;;;;603943;236;26807;-66
2022/06/07 08:20:14;;;;;;;1.23;1.12;;;22.10;54.20;;;;;;602560;236;26818;-68
2022/06/07 08:22:41;;;;;;;1.00;1.00;;;22.50;51.30;;;;;;604697;236;26594;-68
2022/06/07 08:25:11;;;;;;;1.15;1.08;;;22.80;50.40;;;;;;607222;236;26643;-68
2022/06/07 08:27:38;;;;;;;1.40;1.30;;;22.90;50.90;;;;;;607153;235;26556;-68
2022/06/07 08:30:06;;;;;;;1.50;1.27;;;23.20;50.40;;;;;;603550;232;26593;-68
2022/06/07 08:32:33;;;;;;;2.83;1.17;;;23.50;49.50;;;;;;606633;235;26987;-68
2022/06/07 08:37:33;;;;;;;1.35;1.20;;;23.70;48.70;;;;;;607885;235;26672;-67
2022/06/07 08:40:02;;;;;;;2.00;1.30;;;23.60;49.10;;;;;;609772;235;26597;-67
2022/06/07 08:42:29;;;;;;;1.15;1.02;;;23.60;49.10;;;;;;611793;235;26617;-68
2022/06/07 08:44:58;;;;;;;0.98;0.98;;;23.40;48.10;;;;;;607679;236;26651;-67
2022/06/07 08:47:38;;;;;;;2.05;1.25;;;23.40;48.10;;;;;;608797;235;26578;-67
2022/06/07 08:50:22;;;;;;;1.25;1.15;;;23.00;49.10;;;;;;603125;235;26658;-68
2022/06/07 08:52:51;;;;;;;2.45;1.30;;;22.90;49.00;;;;;;603904;236;26649;-67
2022/06/07 08:55:37;;;;;;;1.48;1.23;;;22.80;49.30;;;;;;603095;237;26666;-67
2022/06/07 08:58:12;;;;;;;1.42;1.27;;;22.80;49.30;;;;;;603038;235;26875;-68
2022/06/07 09:00:39;;;;;;;0.82;0.82;;;22.40;49.70;;;;;;602675;237;26936;-67
2022/06/07 09:03:11;;;;;;;1.25;1.15;;;22.40;50.50;;;;;;605031;236;26630;-67
2022/06/07 09:05:38;;;;;;;1.65;1.20;;;22.60;50.40;;;;;;605598;235;26663;-67
2022/06/07 09:08:05;;;;;;;1.20;1.10;;;22.50;50.10;;;;;;605314;235;26948;-68
2022/06/07 09:13:07;;;;;;;0.90;0.90;;;22.40;50.00;;;;;;602760;238;26586;-67
2022/06/07 09:15:34;;;;;;;1.20;1.00;;;22.50;49.40;;;;;;606305;236;26903;-68
2022/06/07 09:18:01;;;;;;;1.20;1.10;;;22.40;49.80;;;;;;604960;236;26609;-67
2022/06/07 09:20:35;;;;;;;1.67;1.30;;;22.40;49.50;;;;;;604290;237;26852;-67
2022/06/07 09:23:04;;;;;;;1.00;0.90;;;22.40;49.90;;;;;;611801;234;26610;-67
2022/06/07 09:25:34;;;;;;;1.10;1.00;;;22.80;50.40;;;;;;603069;237;26615;-67
2022/06/07 09:28:00;;;;;;;0.88;0.88;;;23.60;49.90;;;;;;602603;237;26593;-67
2022/06/07 09:30:34;;;;;;;0.70;0.70;;;24.20;48.80;;;;;;608455;236;26644;-67
2022/06/07 09:33:26;;;;;;;0.80;0.80;;;24.10;48.70;;;;;;610832;235;26592;-67
2022/06/07 09:35:54;;;;;;;1.00;1.00;;;24.40;48.60;;;;;;602948;238;26839;-67
2022/06/07 09:38:39;;;;;;;2.47;1.10;;;24.20;49.00;;;;;;603153;237;26586;-69
2022/06/07 09:41:36;;;;;;;1.62;1.00;;;23.50;49.20;;;;;;604897;235;26648;-67
2022/06/07 09:43:43;;;;;;;0.80;0.80;;;23.50;49.20;;;;;;600979;238;26601;-68
2022/06/07 09:46:10;;;;;;;59.67;12.57;;;23.50;49.50;;;;;;602483;234;26885;-67
2022/06/07 09:48:37;;;;;;;39.40;8.45;;;23.30;49.90;;;;;;601468;238;26619;-67
2022/06/07 09:51:16;;;;;;;117.68;26.00;;;23.50;51.80;;;;;;603818;235;26828;-63
2022/06/07 09:53:43;;;;;;;82.35;19.65;;;23.50;51.80;;;;;;602929;238;26581;-68
2022/06/07 09:56:12;;;;;;;47.40;12.88;;;24.20;49.40;;;;;;606953;236;26903;-68
2022/06/07 09:58:43;;;;;;;83.30;16.62;;;24.40;48.70;;;;;;605025;236;26613;-68
2022/06/07 10:01:12;;;;;;;6.68;2.00;;;24.60;48.40;;;;;;608999;235;26580;-67
2022/06/07 10:03:48;;;;;;;20.45;4.53;;;24.90;49.00;;;;;;605469;236;26596;-67
2022/06/07 10:06:18;;;;;;;3.72;1.62;;;24.90;48.40;;;;;;607517;235;26887;-68
2022/06/07 10:08:46;;;;;;;4.30;1.15;;;24.40;49.00;;;;;;602049;236;26630;-65
2022/06/07 10:11:22;;;;;;;37.42;8.65;;;24.80;49.30;;;;;;603281;237;26589;-65
2022/06/07 10:13:53;;;;;;;33.70;8.13;;;24.70;49.20;;;;;;605245;235;26640;-66
2022/06/07 10:16:20;;;;;;;2.22;1.62;;;25.10;50.50;;;;;;607088;235;26648;-67
2022/06/07 10:18:54;;;;;;;19.80;5.57;;;25.20;48.60;;;;;;612006;234;26794;-67
2022/06/07 10:21:36;;;;;;;12.40;3.83;;;24.80;49.30;;;;;;603896;237;26653;-67
2022/06/07 10:24:19;;;;;;;7.40;2.70;;;25.20;48.50;;;;;;597455;237;26597;-67
2022/06/07 10:27:18;;;;;;;5.85;2.30;;;25.20;48.60;;;;;;602955;236;26581;-67
2022/06/07 10:29:56;;;;;;;5.00;1.80;;;25.10;48.70;;;;;;605947;236;26608;-67
2022/06/07 10:32:41;;;;;;;4.45;2.20;;;25.30;47.60;;;;;;608061;236;26846;-67
2022/06/07 10:35:27;;;;;;;2.92;2.12;;;25.30;47.70;;;;;;609585;234;26610;-67
2022/06/07 10:38:12;;;;;;;1.75;1.08;;;25.40;47.60;;;;;;593171;239;26686;-67
2022/06/07 10:40:52;;;;;;;1.08;1.05;;;25.40;47.10;;;;;;604815;236;27019;-67
2022/06/07 10:43:20;;;;;;;3.10;1.60;;;25.20;47.20;;;;;;610120;236;26645;-67
2022/06/07 10:48:41;;;;;;;3.95;1.25;;;24.50;48.20;;;;;;601919;238;26593;-67
2022/06/07 10:53:49;;;;;;;4.72;1.37;;;24.30;48.00;;;;;;604437;237;26582;-69
2022/06/07 10:56:22;;;;;;;1.00;1.00;;;23.80;48.00;;;;;;604300;238;26976;-69
2022/06/07 10:58:48;;;;;;;2.50;1.70;;;23.80;48.00;;;;;;604041;238;26582;-68
2022/06/07 11:01:16;;;;;;;1.20;0.95;;;24.00;48.00;;;;;;603296;235;26854;-68
2022/06/07 11:03:45;;;;;;;1.23;1.12;;;24.20;47.20;;;;;;604450;238;26591;-68
2022/06/07 11:11:19;;;;;;;1.00;0.90;;;24.40;47.70;;;;;;602598;235;26641;-67
2022/06/07 11:14:00;;;;;;;1.80;1.58;;;24.50;46.90;;;;;;604507;237;26575;-69
2022/06/07 11:16:32;;;;;;;2.47;1.40;;;24.50;46.90;;;;;;607342;236;26864;-68
2022/06/07 11:19:00;;;;;;;7.65;2.55;;;24.60;47.00;;;;;;604834;236;26629;-70
2022/06/07 11:21:31;;;;;;;3.30;1.80;;;24.40;45.70;;;;;;604768;236;26848;-64
2022/06/07 11:24:17;;;;;;;5.40;1.80;;;24.40;46.30;;;;;;609242;233;26659;-66
2022/06/07 11:27:05;;;;;;;11.65;2.70;;;24.40;46.30;;;;;;612757;234;26646;-64
2022/06/07 11:29:33;;;;;;;4.03;1.92;;;24.70;46.60;;;;;;606319;235;26610;-66
2022/06/07 11:32:02;;;;;;;3.30;1.70;;;24.60;47.30;;;;;;602774;236;26595;-66
2022/06/07 11:34:30;;;;;;;9.88;3.22;;;24.50;46.40;;;;;;601994;237;26586;-65
2022/06/07 11:37:28;;;;;;;11.05;3.92;;;24.30;46.80;;;;;;602077;237;26593;-65
2022/06/07 11:39:56;;;;;;;10.45;3.45;;;24.30;46.40;;;;;;602046;239;26834;-67
2022/06/07 11:42:33;;;;;;;3.67;1.85;;;24.20;46.80;;;;;;603489;237;26545;-66
2022/06/07 11:45:06;;;;;;;8.65;3.20;;;24.20;46.30;;;;;;603012;237;26864;-66
2022/06/07 11:47:48;;;;;;;5.45;2.20;;;24.20;46.40;;;;;;601140;238;26600;-66
2022/06/07 11:50:27;;;;;;;6.30;2.30;;;24.20;47.00;;;;;;605751;236;26574;-66
2022/06/07 11:52:55;;;;;;;2.03;1.50;;;24.20;45.90;;;;;;611040;235;26618;-66
2022/06/07 11:55:22;;;;;;;3.08;1.90;;;24.20;46.20;;;;;;606142;235;26628;-65
2022/06/07 11:57:57;;;;;;;2.10;1.25;;;24.40;45.80;;;;;;602544;237;26606;-66
2022/06/07 12:00:41;;;;;;;5.15;1.77;;;24.40;45.70;;;;;;610519;235;26871;-67
2022/06/07 12:03:11;;;;;;;2.40;1.50;;;24.50;46.10;;;;;;605390;236;26647;-65
2022/06/07 12:05:40;;;;;;;2.47;1.62;;;24.70;45.90;;;;;;603151;236;27398;-65
2022/06/07 12:08:21;;;;;;;6.07;1.55;;;25.10;45.90;;;;;;604017;236;26852;-65
2022/06/07 12:11:00;;;;;;;4.43;2.03;;;25.50;47.30;;;;;;606917;236;26590;-64
2022/06/07 12:16:02;;;;;;;2.97;1.62;;;26.20;47.50;;;;;;603796;236;26880;-66
2022/06/07 12:18:30;;;;;;;1.70;1.30;;;26.20;45.50;;;;;;601511;237;26656;-66
2022/06/07 12:20:58;;;;;;;1.95;1.35;;;26.00;45.20;;;;;;602662;237;26893;-65
2022/06/07 12:23:28;;;;;;;2.47;1.20;;;26.20;45.40;;;;;;602390;238;26834;-66
2022/06/07 12:26:00;;;;;;;1.67;1.10;;;26.90;44.10;;;;;;603905;237;26619;-66
2022/06/07 12:28:27;;;;;;;2.83;1.23;;;26.90;44.10;;;;;;611725;234;26650;-65
2022/06/07 12:30:55;;;;;;;2.28;1.37;;;27.10;44.20;;;;;;602607;238;26851;-65
2022/06/07 12:33:28;;;;;;;7.82;2.87;;;27.60;44.10;;;;;;608985;235;26594;-67
2022/06/07 12:35:59;;;;;;;10.23;3.40;;;28.10;43.50;;;;;;606624;235;26664;-68
2022/06/07 12:38:26;;;;;;;11.40;3.03;;;28.30;42.40;;;;;;609462;235;26609;-67
2022/06/07 12:40:54;;;;;;;7.68;2.78;;;28.60;41.80;;;;;;603606;237;26877;-67
2022/06/07 12:43:24;;;;;;;4.18;1.80;;;28.70;41.00;;;;;;603648;237;26812;-65
2022/06/07 12:46:00;;;;;;;3.70;1.40;;;28.80;40.50;;;;;;610353;235;26676;-66
2022/06/07 12:48:27;;;;;;;1.75;1.33;;;28.30;40.60;;;;;;612005;234;26906;-67
2022/06/07 12:50:54;;;;;;;2.40;1.55;;;27.80;40.00;;;;;;605343;236;26599;-66
2022/06/07 12:53:22;;;;;;;5.87;2.15;;;27.30;39.60;;;;;;610284;235;26829;-66
2022/06/07 12:55:52;;;;;;;5.57;2.20;;;26.90;39.10;;;;;;604564;235;26627;-67
2022/06/07 12:58:22;;;;;;;2.47;1.87;;;26.20;39.60;;;;;;602245;238;26856;-66
2022/06/07 13:00:47;;;;;;;2.35;1.40;;;25.60;39.60;;;;;;603715;238;26585;-66
2022/06/07 13:03:23;;;;;;;2.45;1.40;;;25.20;40.10;;;;;;603302;238;26599;-65
2022/06/07 13:05:57;;;;;;;2.05;1.40;;;25.00;41.00;;;;;;602328;237;26687;-65
2022/06/07 13:08:24;;;;;;;1.17;1.08;;;24.90;42.10;;;;;;602321;237;26839;-64
2022/06/07 13:10:52;;;;;;;1.50;1.15;;;25.30;42.90;;;;;;603542;238;26582;-64
2022/06/07 13:13:23;;;;;;;1.05;1.00;;;26.40;41.50;;;;;;603178;237;26872;-66
2022/06/07 13:15:55;;;;;;;1.80;1.70;;;26.40;41.50;;;;;;607772;235;26669;-67
2022/06/07 13:18:23;;;;;;;3.50;2.45;;;27.00;40.00;;;;;;610186;235;26565;-66
2022/06/07 13:20:50;;;;;;;7.70;6.32;;;28.20;39.10;;;;;;608213;236;26551;-65
2022/06/07 13:23:25;;;;;;;5.62;4.47;;;31.30;39.50;;;;;;601243;238;26624;-65
2022/06/07 13:25:50;;;;;;;1.40;1.17;;;31.20;39.40;;;;;;601518;239;26883;-65